Time;durP1;ratioP1;P1;durP2;ratioP2;P2;SDS_P1;SDS_P2;PMS_P1;PMS_P2;Temp;Humidity;BMP_temperature;BMP_pressure;BME280_temperature;BME280_humidity;BME280_pressure;Samples;Min_cycle;Max_cycle;Signal;HPM_P1;HPM_P2
2021/06/03 00:04:46;;;;;;;2.78;2.00;;;22.60;44.40;;;;;;5008052;28;20049;-38
2021/06/03 00:07:23;;;;;;;4.95;2.28;;;22.60;44.40;;;;;;5010794;28;20030;-38
2021/06/03 00:10:16;;;;;;;3.47;2.25;;;22.60;45.10;;;;;;5010003;28;20022;-38
2021/06/03 00:12:50;;;;;;;3.25;2.10;;;22.60;44.40;;;;;;5010920;28;20022;-38
2021/06/03 00:15:25;;;;;;;2.90;2.20;;;22.60;44.50;;;;;;5013097;28;20038;-38
2021/06/03 00:17:50;;;;;;;4.47;2.47;;;22.60;44.50;;;;;;5019955;28;20018;-37
2021/06/03 00:20:19;;;;;;;2.67;2.30;;;22.60;44.50;;;;;;5014713;28;20041;-38
2021/06/03 00:22:50;;;;;;;3.90;2.28;;;22.60;44.50;;;;;;5029498;28;20044;-41
2021/06/03 00:25:24;;;;;;;2.88;2.38;;;22.60;44.60;;;;;;5014318;28;20030;-39
2021/06/03 00:27:57;;;;;;;4.05;2.20;;;22.60;44.60;;;;;;5013374;28;20038;-38
2021/06/03 00:30:35;;;;;;;5.18;2.63;;;22.60;44.70;;;;;;5013204;28;20037;-39
2021/06/03 00:33:03;;;;;;;3.20;2.15;;;22.60;44.60;;;;;;5013542;28;20026;-38
2021/06/03 00:35:37;;;;;;;3.53;2.45;;;22.60;44.70;;;;;;5014495;28;20034;-37
2021/06/03 00:38:03;;;;;;;3.00;2.13;;;22.60;44.70;;;;;;5013176;28;20018;-38
2021/06/03 00:40:29;;;;;;;3.17;2.25;;;22.60;44.70;;;;;;5014194;28;20056;-38
2021/06/03 00:42:55;;;;;;;3.53;2.17;;;22.60;44.80;;;;;;5045280;28;20030;-38
2021/06/03 00:45:28;;;;;;;4.20;2.47;;;22.60;44.80;;;;;;5013578;28;20054;-37
2021/06/03 00:47:55;;;;;;;3.13;2.10;;;22.60;44.80;;;;;;5006621;28;20028;-37
2021/06/03 00:50:35;;;;;;;4.50;2.75;;;22.60;44.90;;;;;;5013782;28;20129;-37
2021/06/03 00:53:06;;;;;;;3.30;2.25;;;22.50;44.80;;;;;;5013505;28;20072;-37
2021/06/03 00:55:42;;;;;;;;;;;22.50;45.00;;;;;;5014225;28;20033;-38
2021/06/03 00:58:08;;;;;;;4.55;2.33;;;22.50;45.00;;;;;;5013595;28;19905;-37
2021/06/03 01:00:43;;;;;;;;;;;;;;;;;;;;;
2021/06/03 01:03:10;;;;;;;4.05;2.90;;;22.50;45.00;;;;;;5011179;28;20044;-37
2021/06/03 01:06:02;;;;;;;4.10;2.55;;;22.50;45.10;;;;;;5013453;28;20030;-37
2021/06/03 01:09:00;;;;;;;4.35;2.47;;;22.40;45.20;;;;;;5014053;28;20349;-37
2021/06/03 01:12:08;;;;;;;3.08;2.05;;;22.40;45.20;;;;;;5009259;28;20459;-38
2021/06/03 01:15:09;;;;;;;4.85;3.10;;;22.40;45.20;;;;;;5006962;28;20027;-37
2021/06/03 01:18:01;;;;;;;4.13;2.42;;;22.40;45.10;;;;;;5030983;28;20439;-37
2021/06/03 01:20:35;;;;;;;3.53;2.60;;;22.50;45.10;;;;;;5006556;28;20479;-37
2021/06/03 01:23:15;;;;;;;3.78;2.13;;;22.50;45.10;;;;;;5012488;28;20042;-37
2021/06/03 01:25:44;;;;;;;4.15;2.70;;;22.50;45.10;;;;;;5012559;28;20022;-38
2021/06/03 01:28:19;;;;;;;5.22;2.65;;;22.50;45.10;;;;;;5012581;28;20080;-38
2021/06/03 01:31:12;;;;;;;2.85;2.53;;;22.50;45.10;;;;;;5013455;28;20025;-38
2021/06/03 01:33:44;;;;;;;2.72;2.00;;;22.40;45.20;;;;;;5005682;28;20046;-38
2021/06/03 01:36:17;;;;;;;3.22;2.08;;;22.50;45.80;;;;;;5012466;28;20051;-37
2021/06/03 01:38:43;;;;;;;4.63;1.85;;;22.50;45.10;;;;;;5013319;28;20037;-38
2021/06/03 01:41:20;;;;;;;4.18;2.45;;;22.50;45.10;;;;;;5011066;28;20052;-38
2021/06/03 01:43:47;;;;;;;3.22;2.22;;;22.50;45.10;;;;;;5007702;28;20029;-38
2021/06/03 01:46:16;;;;;;;2.95;2.30;;;22.50;45.10;;;;;;5008724;28;20475;-38
2021/06/03 01:48:45;;;;;;;2.45;2.00;;;22.50;45.20;;;;;;5008298;28;20079;-38
2021/06/03 01:51:25;;;;;;;3.08;2.08;;;22.50;45.20;;;;;;5006909;28;20128;-37
2021/06/03 01:54:05;;;;;;;3.60;2.35;;;22.50;45.20;;;;;;5009042;28;20097;-42
2021/06/03 01:56:35;;;;;;;3.67;2.47;;;22.50;45.20;;;;;;5001018;28;20040;-38
2021/06/03 01:59:03;;;;;;;5.43;2.58;;;22.50;45.20;;;;;;5000832;28;20018;-38
2021/06/03 02:01:31;;;;;;;4.53;2.53;;;22.50;45.20;;;;;;5000102;28;20033;-38
2021/06/03 02:04:16;;;;;;;3.15;2.20;;;22.50;45.40;;;;;;5005652;28;20041;-38
2021/06/03 02:06:47;;;;;;;4.57;2.50;;;22.40;45.50;;;;;;5005550;28;20030;-37
2021/06/03 02:09:24;;;;;;;3.45;2.40;;;22.40;45.70;;;;;;5009193;28;20037;-38
2021/06/03 02:11:51;;;;;;;2.92;2.35;;;22.40;45.60;;;;;;5006305;28;20113;-43
2021/06/03 02:14:22;;;;;;;3.78;2.67;;;22.40;45.60;;;;;;5005780;28;20023;-38
2021/06/03 02:17:21;;;;;;;3.45;2.20;;;22.50;45.60;;;;;;5009620;28;20056;-43
2021/06/03 02:20:13;;;;;;;3.85;2.50;;;22.50;45.50;;;;;;5006477;28;20073;-41
2021/06/03 02:22:42;;;;;;;4.20;1.95;;;22.50;45.60;;;;;;5005203;28;20033;-38
2021/06/03 02:25:22;;;;;;;3.95;2.83;;;22.50;45.50;;;;;;5006736;28;20091;-38
2021/06/03 02:27:50;;;;;;;3.97;2.38;;;22.50;45.60;;;;;;5002788;28;20035;-41
2021/06/03 02:30:20;;;;;;;3.13;2.03;;;22.50;45.60;;;;;;5010474;28;20466;-37
2021/06/03 02:32:53;;;;;;;3.88;2.00;;;22.50;45.70;;;;;;5004192;28;20026;-37
2021/06/03 02:35:22;;;;;;;3.45;2.58;;;22.50;45.70;;;;;;5005450;28;20034;-38
2021/06/03 02:37:48;;;;;;;3.47;2.05;;;22.50;45.70;;;;;;5003075;28;20038;-41
2021/06/03 02:40:21;;;;;;;2.45;2.00;;;22.50;45.80;;;;;;5004182;28;20037;-38
2021/06/03 02:43:00;;;;;;;4.07;2.63;;;22.50;45.80;;;;;;5007792;28;20582;-38
2021/06/03 02:45:30;;;;;;;2.58;2.25;;;22.50;45.80;;;;;;5002740;28;20045;-38
2021/06/03 02:48:00;;;;;;;3.67;2.30;;;22.50;45.80;;;;;;5003013;28;20121;-38
2021/06/03 02:50:32;;;;;;;2.72;1.95;;;22.50;45.90;;;;;;5003745;28;20100;-38
2021/06/03 02:53:01;;;;;;;3.00;2.17;;;22.50;45.90;;;;;;5003323;28;20042;-38
2021/06/03 02:55:57;;;;;;;3.55;1.95;;;22.50;45.90;;;;;;5001903;28;20033;-37
2021/06/03 02:58:24;;;;;;;3.17;2.00;;;22.50;46.00;;;;;;5008058;28;20439;-38
2021/06/03 03:00:57;;;;;;;5.57;2.15;;;22.50;46.00;;;;;;5005705;28;20093;-42
2021/06/03 03:03:34;;;;;;;3.65;2.40;;;22.50;46.10;;;;;;5006115;28;20041;-38
2021/06/03 03:06:00;;;;;;;4.45;2.08;;;22.50;46.10;;;;;;5001304;28;20029;-37
2021/06/03 03:08:26;;;;;;;2.70;1.90;;;22.50;46.20;;;;;;5002594;28;20521;-38
2021/06/03 03:10:58;;;;;;;4.20;2.10;;;22.50;46.20;;;;;;4999696;28;20156;-38
2021/06/03 03:13:26;;;;;;;2.65;2.13;;;22.50;46.30;;;;;;5003302;28;20467;-40
2021/06/03 03:15:58;;;;;;;3.55;2.10;;;22.50;46.30;;;;;;5007240;28;20029;-38
2021/06/03 03:18:29;;;;;;;2.00;1.80;;;22.50;46.40;;;;;;5008151;28;20056;-37
2021/06/03 03:21:00;;;;;;;3.77;2.13;;;22.50;46.40;;;;;;5010891;28;20038;-37
2021/06/03 03:23:35;;;;;;;3.35;2.22;;;22.50;46.40;;;;;;5011524;28;20285;-37
2021/06/03 03:26:08;;;;;;;2.53;2.20;;;22.50;46.40;;;;;;5010678;28;20037;-38
2021/06/03 03:28:46;;;;;;;2.40;2.03;;;22.50;46.50;;;;;;5010879;28;20034;-38
2021/06/03 03:31:21;;;;;;;3.55;2.22;;;22.50;46.50;;;;;;5010612;28;20037;-38
2021/06/03 03:33:52;;;;;;;5.35;2.13;;;22.50;46.50;;;;;;5011431;28;20018;-38
2021/06/03 03:36:23;;;;;;;3.30;2.13;;;22.50;46.60;;;;;;5011436;28;20053;-38
2021/06/03 03:38:52;;;;;;;2.88;1.95;;;22.50;46.60;;;;;;5011224;28;20061;-42
2021/06/03 03:41:40;;;;;;;3.35;2.17;;;22.50;46.70;;;;;;5011004;28;20129;-37
2021/06/03 03:44:06;;;;;;;4.82;2.22;;;22.50;46.70;;;;;;5006245;28;20489;-38
2021/06/03 03:46:40;;;;;;;2.45;1.65;;;22.50;46.70;;;;;;5010458;28;20038;-37
2021/06/03 03:49:14;;;;;;;2.78;2.10;;;22.50;46.70;;;;;;5011418;28;20140;-38
2021/06/03 03:52:02;;;;;;;2.95;2.25;;;22.50;46.70;;;;;;5015050;28;20053;-37
2021/06/03 03:54:30;;;;;;;3.03;2.20;;;22.50;46.70;;;;;;5015232;28;20065;-37
2021/06/03 03:56:56;;;;;;;4.18;2.20;;;22.50;46.80;;;;;;5013759;28;20059;-38
2021/06/03 03:59:25;;;;;;;3.58;1.90;;;22.50;46.70;;;;;;5014966;28;20033;-38
2021/06/03 04:02:13;;;;;;;2.70;2.10;;;22.50;46.80;;;;;;5013944;28;20141;-43
2021/06/03 04:04:44;;;;;;;5.22;2.28;;;22.50;46.70;;;;;;5010107;28;20379;-37
2021/06/03 04:07:13;;;;;;;2.47;1.90;;;22.50;46.70;;;;;;5013732;28;20109;-38
2021/06/03 04:09:56;;;;;;;3.45;2.33;;;22.50;47.40;;;;;;5014585;28;20042;-38
2021/06/03 04:12:22;;;;;;;3.10;2.28;;;22.50;46.90;;;;;;5014876;28;20034;-38
2021/06/03 04:14:51;;;;;;;3.90;2.20;;;22.50;47.10;;;;;;5014159;28;20387;-38
2021/06/03 04:17:19;;;;;;;2.42;2.03;;;22.40;47.10;;;;;;5017166;28;20117;-38
2021/06/03 04:19:48;;;;;;;3.45;2.55;;;22.40;47.20;;;;;;5014824;28;20036;-38
2021/06/03 04:22:22;;;;;;;2.83;2.15;;;22.40;47.30;;;;;;5013273;28;20038;-37
2021/06/03 04:24:55;;;;;;;3.60;2.03;;;22.40;47.60;;;;;;5014293;28;20029;-37
2021/06/03 04:27:29;;;;;;;3.05;2.25;;;22.40;47.50;;;;;;5014397;28;20507;-37
2021/06/03 04:29:55;;;;;;;2.92;2.28;;;22.40;47.50;;;;;;5005920;28;20026;-38
2021/06/03 04:32:27;;;;;;;2.88;2.08;;;22.40;47.70;;;;;;5019871;28;20167;-38
2021/06/03 04:34:59;;;;;;;2.70;1.98;;;22.40;47.80;;;;;;5028030;28;20026;-41
2021/06/03 04:37:27;;;;;;;3.75;2.53;;;22.40;47.70;;;;;;5022166;28;20375;-38
2021/06/03 04:39:59;;;;;;;3.30;2.30;;;22.50;47.70;;;;;;5013974;28;20021;-44
2021/06/03 04:42:25;;;;;;;2.58;2.05;;;22.50;47.60;;;;;;5013951;28;20034;-37
2021/06/03 04:44:53;;;;;;;2.92;1.67;;;22.50;47.60;;;;;;5013699;28;20379;-41
2021/06/03 04:47:25;;;;;;;4.70;2.10;;;22.50;47.60;;;;;;5015509;28;20058;-37
2021/06/03 04:49:56;;;;;;;3.17;2.00;;;22.50;47.60;;;;;;5014037;28;20033;-41
2021/06/03 04:52:34;;;;;;;2.55;1.92;;;22.50;47.70;;;;;;5013599;28;20126;-38
2021/06/03 04:55:05;;;;;;;4.20;2.78;;;22.50;47.70;;;;;;5028678;28;20033;-38
2021/06/03 04:57:31;;;;;;;;;;;22.50;47.70;;;;;;5014081;28;20352;-38
2021/06/03 05:00:00;;;;;;;2.55;2.00;;;22.50;47.80;;;;;;5013051;28;19955;-38
2021/06/03 05:02:26;;;;;;;3.80;2.38;;;22.50;47.80;;;;;;5012984;28;20437;-38
2021/06/03 05:04:53;;;;;;;4.40;2.05;;;22.50;47.80;;;;;;5013449;28;20038;-41
2021/06/03 05:07:18;;;;;;;2.33;2.10;;;22.50;47.80;;;;;;5007908;28;20029;-37
2021/06/03 05:09:44;;;;;;;3.35;1.90;;;22.50;47.80;;;;;;5029072;28;20034;-37
2021/06/03 05:12:10;;;;;;;3.13;2.20;;;22.50;47.80;;;;;;5012769;28;20088;-38
2021/06/03 05:14:36;;;;;;;2.72;1.92;;;22.50;47.80;;;;;;5012788;28;20026;-37
2021/06/03 05:17:02;;;;;;;3.42;2.35;;;22.50;47.90;;;;;;5012814;28;20057;-38
2021/06/03 05:19:28;;;;;;;4.22;2.10;;;22.50;47.90;;;;;;5013445;28;20720;-38
2021/06/03 05:21:54;;;;;;;2.90;2.17;;;22.50;47.90;;;;;;5012568;28;20085;-41
2021/06/03 05:24:19;;;;;;;2.28;2.08;;;22.50;47.90;;;;;;5013280;28;20030;-38
2021/06/03 05:26:46;;;;;;;3.17;2.13;;;22.50;48.10;;;;;;5013233;28;20029;-38
2021/06/03 05:29:15;;;;;;;3.67;2.50;;;22.50;48.30;;;;;;5012246;28;20487;-39
2021/06/03 05:31:42;;;;;;;2.75;2.22;;;22.50;48.20;;;;;;5013348;28;20033;-38
2021/06/03 05:34:08;;;;;;;3.10;2.58;;;22.50;48.10;;;;;;5012380;28;20030;-38
2021/06/03 05:36:33;;;;;;;3.17;2.22;;;22.50;48.20;;;;;;5013431;28;20026;-38
2021/06/03 05:38:59;;;;;;;3.08;2.22;;;22.50;48.20;;;;;;5012122;28;20113;-38
2021/06/03 05:41:25;;;;;;;4.88;2.25;;;22.50;48.30;;;;;;5013064;28;20101;-38
2021/06/03 05:43:50;;;;;;;2.67;2.10;;;22.50;48.40;;;;;;5013142;28;20033;-37
2021/06/03 05:46:16;;;;;;;2.42;1.92;;;22.60;48.40;;;;;;5012359;28;20034;-38
2021/06/03 05:48:42;;;;;;;3.15;2.08;;;22.60;48.50;;;;;;5012784;28;20022;-38
2021/06/03 05:51:07;;;;;;;3.22;2.70;;;22.60;48.60;;;;;;5011807;28;20545;-41
2021/06/03 05:53:33;;;;;;;2.70;2.22;;;22.60;48.60;;;;;;5012933;28;20034;-37
2021/06/03 05:55:59;;;;;;;2.60;2.03;;;22.60;48.60;;;;;;5012004;28;20022;-38
2021/06/03 05:58:25;;;;;;;2.78;2.10;;;22.60;48.70;;;;;;5012804;28;20109;-38
2021/06/03 06:00:50;;;;;;;2.97;2.30;;;22.60;48.70;;;;;;5012809;28;20167;-38
2021/06/03 06:03:22;;;;;;;4.40;2.20;;;22.60;48.70;;;;;;5011660;28;20034;-38
2021/06/03 06:08:32;;;;;;;3.78;2.13;;;22.60;48.80;;;;;;5012649;28;19916;-39
2021/06/03 06:10:57;;;;;;;2.47;2.08;;;22.60;48.80;;;;;;5007933;28;20025;-40
2021/06/03 06:13:23;;;;;;;2.80;2.25;;;22.60;48.70;;;;;;5006201;28;20033;-39
2021/06/03 06:15:49;;;;;;;4.10;2.55;;;22.60;48.70;;;;;;5009448;28;20450;-39
2021/06/03 06:18:14;;;;;;;3.65;2.45;;;22.60;50.20;;;;;;5001807;28;20655;-40
2021/06/03 06:20:40;;;;;;;4.47;2.72;;;22.50;50.70;;;;;;5007289;28;20065;-39
2021/06/03 06:23:07;;;;;;;6.40;2.42;;;22.50;50.90;;;;;;5000534;28;20486;-40
2021/06/03 06:25:34;;;;;;;3.90;2.28;;;22.50;51.20;;;;;;5005068;28;20053;-40
2021/06/03 06:27:59;;;;;;;4.15;2.40;;;22.60;51.30;;;;;;5005981;28;20026;-39
2021/06/03 06:30:27;;;;;;;3.80;2.40;;;22.60;51.40;;;;;;5002075;28;20029;-39
2021/06/03 06:32:54;;;;;;;3.78;2.65;;;22.60;51.50;;;;;;5006473;28;20025;-39
2021/06/03 06:35:20;;;;;;;3.35;2.42;;;22.60;51.60;;;;;;5009264;28;20025;-39
2021/06/03 06:37:45;;;;;;;3.83;2.78;;;22.60;51.80;;;;;;5002413;28;20022;-39
2021/06/03 06:40:12;;;;;;;4.75;2.72;;;22.60;51.80;;;;;;5010574;28;20029;-39
2021/06/03 06:42:37;;;;;;;3.83;2.53;;;22.60;51.90;;;;;;5006689;28;20468;-39
2021/06/03 06:45:06;;;;;;;3.80;2.40;;;22.60;52.00;;;;;;5004133;28;20100;-39
2021/06/03 06:47:33;;;;;;;3.45;2.30;;;22.70;52.00;;;;;;5003725;28;20030;-39
2021/06/03 06:49:58;;;;;;;3.45;2.60;;;22.70;52.10;;;;;;5004195;28;20501;-39
2021/06/03 06:52:24;;;;;;;4.43;2.22;;;22.70;52.20;;;;;;4997821;28;20042;-39
2021/06/03 06:54:50;;;;;;;6.05;2.67;;;22.70;52.20;;;;;;5007932;28;20076;-40
2021/06/03 06:57:15;;;;;;;8.20;2.83;;;22.70;52.30;;;;;;5003411;28;20069;-39
2021/06/03 06:59:41;;;;;;;5.45;2.45;;;22.70;52.50;;;;;;5006940;28;20025;-39
2021/06/03 07:02:08;;;;;;;4.65;2.53;;;22.70;52.90;;;;;;5000461;28;20483;-40
2021/06/03 07:04:34;;;;;;;6.32;2.72;;;22.70;52.60;;;;;;5002295;28;20034;-39
2021/06/03 07:07:00;;;;;;;5.13;2.15;;;22.70;52.60;;;;;;5006868;28;20034;-40
2021/06/03 07:09:25;;;;;;;3.58;2.63;;;22.70;52.50;;;;;;5010314;28;20394;-39
2021/06/03 07:11:51;;;;;;;5.10;2.70;;;22.70;52.50;;;;;;5005393;28;20032;-39
2021/06/03 07:14:17;;;;;;;4.78;2.50;;;22.70;52.60;;;;;;5009170;28;20102;-39
2021/06/03 07:16:42;;;;;;;4.03;2.53;;;22.70;52.70;;;;;;5002760;28;20471;-39
2021/06/03 07:19:08;;;;;;;3.75;2.70;;;22.70;52.70;;;;;;5001718;28;20030;-39
2021/06/03 07:21:34;;;;;;;3.85;2.47;;;22.70;52.70;;;;;;5006131;28;20141;-39
2021/06/03 07:24:00;;;;;;;5.78;2.30;;;22.70;52.80;;;;;;5001813;28;20050;-39
2021/06/03 07:26:26;;;;;;;3.80;2.55;;;22.70;52.70;;;;;;5004715;28;20022;-39
2021/06/03 07:28:52;;;;;;;15.13;2.92;;;22.70;52.80;;;;;;5010158;28;20079;-39
2021/06/03 07:31:18;;;;;;;4.15;2.47;;;22.60;53.40;;;;;;5000283;28;20783;-39
2021/06/03 07:33:44;;;;;;;3.97;2.58;;;22.60;53.20;;;;;;5002405;28;20022;-38
2021/06/03 07:36:09;;;;;;;3.83;2.50;;;22.50;53.80;;;;;;5002714;28;20045;-39
2021/06/03 07:38:36;;;;;;;3.70;2.22;;;22.50;53.70;;;;;;5005878;28;20142;-39
2021/06/03 07:41:03;;;;;;;3.42;2.35;;;22.40;54.10;;;;;;5000313;28;20026;-39
2021/06/03 07:43:28;;;;;;;6.13;2.60;;;22.40;54.50;;;;;;5007276;28;20045;-39
2021/06/03 07:45:55;;;;;;;5.82;3.10;;;22.50;54.30;;;;;;5004480;28;20448;-40
2021/06/03 07:48:21;;;;;;;5.22;3.85;;;22.50;54.40;;;;;;5011385;28;20025;-38
2021/06/03 07:50:47;;;;;;;9.20;4.38;;;22.50;55.30;;;;;;5011781;28;20155;-39
2021/06/03 07:53:13;;;;;;;110.03;57.75;;;22.40;54.60;;;;;;5013863;28;20518;-39
2021/06/03 07:55:40;;;;;;;26.10;15.57;;;22.40;54.70;;;;;;5004799;28;20106;-38
2021/06/03 07:58:10;;;;;;;45.15;27.33;;;22.40;55.20;;;;;;5004468;28;20443;-38
2021/06/03 08:00:39;;;;;;;54.25;34.20;;;22.40;55.40;;;;;;5007741;28;20048;-38
2021/06/03 08:03:05;;;;;;;59.13;32.38;;;22.40;56.40;;;;;;5000601;28;20088;-38
2021/06/03 08:05:31;;;;;;;39.75;22.77;;;22.40;56.90;;;;;;5001317;28;20088;-39
2021/06/03 08:07:57;;;;;;;33.42;18.55;;;22.40;56.80;;;;;;5010347;28;20438;-40
2021/06/03 08:10:27;;;;;;;32.10;15.43;;;22.50;56.50;;;;;;5010461;28;20064;-39
2021/06/03 08:12:55;;;;;;;27.00;12.90;;;22.60;57.00;;;;;;5011170;28;20034;-38
2021/06/03 08:15:24;;;;;;;16.15;9.73;;;22.60;56.50;;;;;;5010728;28;20483;-39
2021/06/03 08:17:51;;;;;;;12.27;8.20;;;22.70;56.50;;;;;;5010904;28;20092;-39
2021/06/03 08:20:23;;;;;;;15.75;8.18;;;22.70;56.40;;;;;;5009872;28;20025;-38
2021/06/03 08:22:49;;;;;;;13.45;7.90;;;22.70;56.40;;;;;;5011349;28;20030;-39
2021/06/03 08:25:16;;;;;;;13.73;8.25;;;22.80;56.20;;;;;;5012595;28;20030;-39
2021/06/03 08:27:42;;;;;;;14.98;7.40;;;22.80;56.20;;;;;;5011939;28;20467;-42
2021/06/03 08:30:11;;;;;;;15.95;7.00;;;22.80;56.10;;;;;;5015623;28;20034;-39
2021/06/03 08:32:37;;;;;;;16.85;7.10;;;22.90;55.90;;;;;;5011101;28;20479;-39
2021/06/03 08:35:03;;;;;;;18.08;8.68;;;22.90;55.80;;;;;;5009678;28;20283;-40
2021/06/03 08:37:30;;;;;;;12.48;7.05;;;23.00;55.80;;;;;;5013999;28;20036;-41
2021/06/03 08:39:56;;;;;;;11.90;7.00;;;23.00;56.50;;;;;;5013674;28;20040;-39
2021/06/03 08:42:22;;;;;;;14.43;6.30;;;23.00;55.90;;;;;;5021917;28;20041;-38
2021/06/03 08:44:48;;;;;;;11.77;7.45;;;23.00;55.60;;;;;;5014444;28;20038;-39
2021/06/03 08:47:13;;;;;;;11.27;6.57;;;23.00;55.80;;;;;;5014406;28;20034;-39
2021/06/03 08:49:39;;;;;;;13.43;6.72;;;23.10;55.60;;;;;;5014050;28;20033;-38
2021/06/03 08:52:07;;;;;;;12.13;6.25;;;23.20;55.40;;;;;;5013689;28;20073;-38
2021/06/03 08:54:39;;;;;;;12.35;5.90;;;23.10;55.40;;;;;;5014289;28;20460;-38
2021/06/03 08:57:10;;;;;;;12.27;5.82;;;23.20;55.40;;;;;;5013231;28;20602;-39
2021/06/03 08:59:36;;;;;;;13.27;6.15;;;23.20;55.20;;;;;;5013953;28;20117;-38
2021/06/03 09:02:02;;;;;;;12.57;5.55;;;23.20;55.80;;;;;;5012875;28;20160;-39
2021/06/03 09:04:27;;;;;;;9.55;5.55;;;23.30;55.10;;;;;;5005951;28;20034;-41
2021/06/03 09:06:53;;;;;;;13.27;5.70;;;23.30;55.00;;;;;;5011327;28;20026;-38
2021/06/03 09:09:27;;;;;;;13.38;6.22;;;23.30;54.80;;;;;;5013579;28;20034;-37
2021/06/03 09:12:15;;;;;;;12.70;5.35;;;23.30;54.70;;;;;;5013978;28;20041;-39
2021/06/03 09:14:41;;;;;;;9.68;5.40;;;23.30;54.80;;;;;;5013282;28;20033;-37
2021/06/03 09:17:09;;;;;;;11.57;5.28;;;23.40;54.70;;;;;;5013059;28;20037;-38
2021/06/03 09:19:35;;;;;;;9.60;4.75;;;23.40;55.00;;;;;;5013442;28;20030;-38
2021/06/03 09:22:02;;;;;;;14.60;5.13;;;23.40;54.90;;;;;;5012758;28;20041;-38
2021/06/03 09:24:31;;;;;;;15.10;5.05;;;23.40;54.80;;;;;;5013582;28;20041;-38
2021/06/03 09:27:00;;;;;;;9.75;4.40;;;23.40;54.90;;;;;;5013532;28;20107;-38
2021/06/03 09:29:31;;;;;;;7.50;4.05;;;23.40;54.80;;;;;;5012844;28;20033;-40
2021/06/03 09:32:08;;;;;;;8.10;4.40;;;23.40;55.00;;;;;;5013449;28;20030;-38
2021/06/03 09:34:35;;;;;;;8.63;4.72;;;23.50;54.80;;;;;;5013765;28;20036;-38
2021/06/03 09:37:04;;;;;;;7.85;3.78;;;23.50;54.90;;;;;;5013010;28;20113;-40
2021/06/03 09:39:34;;;;;;;9.70;4.10;;;23.50;54.60;;;;;;5013098;28;20030;-38
2021/06/03 09:42:12;;;;;;;5.93;3.40;;;23.60;54.90;;;;;;5013170;28;20037;-42
2021/06/03 09:44:46;;;;;;;7.18;3.03;;;23.60;54.50;;;;;;5044963;28;20411;-38
2021/06/03 09:47:20;;;;;;;8.43;4.07;;;23.70;54.80;;;;;;5012156;28;20050;-38
2021/06/03 09:49:53;;;;;;;8.10;4.20;;;23.70;54.50;;;;;;5012629;28;20467;-39
2021/06/03 09:52:20;;;;;;;5.63;2.88;;;23.70;54.80;;;;;;5012192;28;20087;-39
2021/06/03 09:54:53;;;;;;;7.47;3.08;;;23.70;54.60;;;;;;5013323;28;20097;-38
2021/06/03 09:57:19;;;;;;;6.80;2.22;;;23.70;54.50;;;;;;5011977;28;20038;-39
2021/06/03 09:59:47;;;;;;;6.50;2.50;;;23.70;54.00;;;;;;5012757;28;20108;-39
2021/06/03 10:02:15;;;;;;;5.70;2.60;;;23.60;53.80;;;;;;5011699;28;20033;-38
2021/06/03 10:04:51;;;;;;;5.93;2.30;;;23.60;53.90;;;;;;5012777;28;20164;-38
2021/06/03 10:07:27;;;;;;;4.70;2.60;;;23.60;53.50;;;;;;5011462;28;20029;-42
2021/06/03 10:09:58;;;;;;;4.00;2.20;;;23.80;53.70;;;;;;5012782;28;20032;-38
2021/06/03 10:12:27;;;;;;;2.28;1.92;;;23.80;53.40;;;;;;5012212;28;20054;-40
2021/06/03 10:15:08;;;;;;;9.18;2.22;;;23.90;53.20;;;;;;5012732;28;20049;-41
2021/06/03 10:17:38;;;;;;;8.40;2.47;;;23.80;53.10;;;;;;5012943;28;20042;-40
2021/06/03 10:20:11;;;;;;;16.77;3.43;;;23.90;53.10;;;;;;5012074;28;20034;-41
2021/06/03 10:22:42;;;;;;;9.73;2.42;;;24.00;53.00;;;;;;5012166;28;20045;-40
2021/06/03 10:25:13;;;;;;;10.70;2.38;;;24.00;53.30;;;;;;5012150;28;20033;-40
2021/06/03 10:27:43;;;;;;;13.18;2.67;;;24.00;53.00;;;;;;5012594;28;20025;-42
2021/06/03 10:30:29;;;;;;;22.38;3.78;;;24.00;52.80;;;;;;5011549;28;20034;-40
2021/06/03 10:32:59;;;;;;;7.78;2.28;;;24.00;52.90;;;;;;5012744;28;20390;-44
2021/06/03 10:35:31;;;;;;;10.48;2.35;;;24.00;53.40;;;;;;5011625;28;20178;-41
2021/06/03 10:37:57;;;;;;;10.60;2.83;;;24.00;52.90;;;;;;5012165;28;20475;-40
2021/06/03 10:40:27;;;;;;;9.02;2.70;;;24.00;52.70;;;;;;5011136;28;20092;-40
2021/06/03 10:42:54;;;;;;;7.50;2.22;;;24.00;52.70;;;;;;5004350;28;20041;-40
2021/06/03 10:45:21;;;;;;;9.02;2.55;;;24.00;52.60;;;;;;5010864;28;20041;-43
2021/06/03 10:47:47;;;;;;;8.10;2.33;;;23.90;52.90;;;;;;5011577;28;20030;-41
2021/06/03 10:50:23;;;;;;;7.97;2.10;;;23.90;52.90;;;;;;5006760;28;20502;-41
2021/06/03 10:52:49;;;;;;;11.38;2.15;;;23.90;52.90;;;;;;5003977;28;20070;-40
2021/06/03 10:55:46;;;;;;;6.18;2.05;;;23.90;52.80;;;;;;5008161;28;20109;-41
2021/06/03 10:58:13;;;;;;;10.57;2.00;;;23.90;52.40;;;;;;4991861;28;20042;-40
2021/06/03 11:00:47;;;;;;;9.18;2.10;;;23.90;52.40;;;;;;5002568;28;20058;-40
2021/06/03 11:03:19;;;;;;;12.10;2.40;;;24.00;52.50;;;;;;5010786;28;20064;-41
2021/06/03 11:05:47;;;;;;;9.27;1.80;;;24.00;52.10;;;;;;5003008;28;20036;-43
2021/06/03 11:08:23;;;;;;;4.38;1.90;;;24.00;51.90;;;;;;5008542;28;20072;-42
2021/06/03 11:10:49;;;;;;;8.88;2.03;;;24.00;51.70;;;;;;5010091;28;20038;-43
2021/06/03 11:13:17;;;;;;;6.40;1.70;;;24.00;51.60;;;;;;5002306;28;20521;-46
2021/06/03 11:16:02;;;;;;;6.63;2.28;;;24.00;51.60;;;;;;5005918;28;20101;-40
2021/06/03 11:18:48;;;;;;;4.00;1.63;;;24.00;52.00;;;;;;5006329;28;20026;-44
2021/06/03 11:21:38;;;;;;;9.95;2.47;;;24.00;51.80;;;;;;5007943;28;20034;-41
2021/06/03 11:24:07;;;;;;;5.47;1.88;;;24.00;51.60;;;;;;5007197;28;20040;-41
2021/06/03 11:26:44;;;;;;;5.47;1.75;;;24.10;51.60;;;;;;5007229;28;20034;-40
2021/06/03 11:29:13;;;;;;;3.85;1.55;;;24.10;51.20;;;;;;5002962;28;20387;-41
2021/06/03 11:31:48;;;;;;;4.47;1.45;;;24.10;51.10;;;;;;5006952;28;20041;-40
2021/06/03 11:34:22;;;;;;;4.20;1.70;;;24.10;51.30;;;;;;5004343;28;20026;-42
2021/06/03 11:37:04;;;;;;;5.72;1.80;;;24.00;51.30;;;;;;5008266;28;20030;-41
2021/06/03 11:39:33;;;;;;;4.55;1.92;;;24.00;51.70;;;;;;5009861;28;20531;-40
2021/06/03 11:42:28;;;;;;;5.60;2.53;;;24.00;51.90;;;;;;5005046;28;20074;-41
2021/06/03 11:45:03;;;;;;;4.72;2.17;;;24.00;52.00;;;;;;5007322;28;20064;-41
2021/06/03 11:47:56;;;;;;;2.95;1.90;;;24.00;52.20;;;;;;5005268;28;20153;-42
2021/06/03 11:50:22;;;;;;;4.90;2.17;;;24.00;52.20;;;;;;4996492;28;20464;-38
2021/06/03 11:52:56;;;;;;;6.70;2.75;;;24.00;52.10;;;;;;5001946;28;20077;-42
2021/06/03 11:55:46;;;;;;;7.28;2.40;;;24.00;52.30;;;;;;4999529;28;20530;-40
2021/06/03 11:58:27;;;;;;;6.90;1.80;;;24.10;52.10;;;;;;5001600;28;20556;-41
2021/06/03 12:01:15;;;;;;;6.20;2.00;;;24.10;52.10;;;;;;5011056;28;20468;-40
2021/06/03 12:03:46;;;;;;;6.03;2.03;;;24.10;52.10;;;;;;5010930;28;20585;-42
2021/06/03 12:06:29;;;;;;;6.40;1.90;;;24.10;52.10;;;;;;5010458;28;20383;-40
2021/06/03 12:09:14;;;;;;;8.60;2.15;;;24.20;52.00;;;;;;5011264;28;20375;-48
2021/06/03 12:11:45;;;;;;;6.95;1.63;;;24.10;52.10;;;;;;5014497;28;20038;-39
2021/06/03 12:14:24;;;;;;;8.55;2.17;;;24.10;52.30;;;;;;5014082;28;20037;-38
2021/06/03 12:16:54;;;;;;;6.18;2.00;;;24.10;52.90;;;;;;5014750;28;20030;-40
2021/06/03 12:19:22;;;;;;;7.15;3.33;;;24.10;53.60;;;;;;5013922;28;20475;-38
2021/06/03 12:22:06;;;;;;;8.02;2.15;;;24.20;53.70;;;;;;5014852;28;20030;-39
2021/06/03 12:24:42;;;;;;;7.30;2.28;;;24.10;54.30;;;;;;5007829;28;20448;-38
2021/06/03 12:27:55;;;;;;;6.40;1.75;;;24.20;54.60;;;;;;5014233;28;20098;-40
2021/06/03 12:30:23;;;;;;;9.25;2.30;;;24.20;54.30;;;;;;4972718;28;20058;-38
2021/06/03 12:33:04;;;;;;;5.22;2.10;;;24.20;54.20;;;;;;4973006;28;20066;-38
2021/06/03 12:35:32;;;;;;;5.60;2.60;;;24.10;54.10;;;;;;4972357;28;20093;-38
2021/06/03 12:37:58;;;;;;;5.13;2.15;;;24.20;54.30;;;;;;4973168;28;20031;-37
2021/06/03 12:40:26;;;;;;;7.38;1.90;;;24.20;54.50;;;;;;4971631;28;20045;-39
2021/06/03 12:43:05;;;;;;;8.52;2.75;;;24.20;55.20;;;;;;4972971;28;20054;-37
2021/06/03 12:45:37;;;;;;;6.75;3.10;;;24.20;56.00;;;;;;4971961;28;20035;-38
2021/06/03 12:48:06;;;;;;;8.27;2.13;;;24.10;56.40;;;;;;4973071;28;20478;-37
2021/06/03 12:50:40;;;;;;;10.10;2.70;;;24.10;56.40;;;;;;4971695;28;20085;-35
2021/06/03 12:53:10;;;;;;;10.18;2.42;;;24.10;56.20;;;;;;4973064;28;20034;-35
2021/06/03 12:55:36;;;;;;;9.07;2.00;;;24.20;55.70;;;;;;4972786;28;20059;-37
2021/06/03 12:58:07;;;;;;;4.82;2.42;;;24.20;56.10;;;;;;4972678;28;20085;-39
2021/06/03 13:00:35;;;;;;;10.20;2.10;;;24.20;56.10;;;;;;4983497;28;20045;-38
2021/06/03 13:03:09;;;;;;;6.05;2.13;;;24.20;56.20;;;;;;5014353;28;20033;-37
2021/06/03 13:05:35;;;;;;;5.72;2.50;;;24.20;56.70;;;;;;5013701;28;20037;-38
2021/06/03 13:08:01;;;;;;;5.65;2.03;;;24.20;56.70;;;;;;5013964;28;20040;-38
2021/06/03 13:10:26;;;;;;;10.48;2.00;;;24.10;56.70;;;;;;5013036;28;20054;-38
2021/06/03 13:13:02;;;;;;;5.25;2.10;;;24.10;57.30;;;;;;5013730;28;20505;-37